Time;durP1;ratioP1;P1;durP2;ratioP2;P2;SDS_P1;SDS_P2;PMS_P1;PMS_P2;Temp;Humidity;BMP_temperature;BMP_pressure;BME280_temperature;BME280_humidity;BME280_pressure;Samples;Min_cycle;Max_cycle;Signal;HPM_P1;HPM_P2
2024/01/14 00:00:11;;;;;;;11.82;2.28;;;;;;;;;;5021504;28;20642;-84
2024/01/14 00:02:38;;;;;;;10.70;2.90;;;;;;;;;;5006671;28;20037;-84
2024/01/14 00:05:05;;;;;;;12.35;3.35;;;;;;;;;;5007127;28;20562;-88
2024/01/14 00:07:31;;;;;;;11.02;2.45;;;;;;;;;;5007383;28;20837;-84
2024/01/14 00:09:58;;;;;;;11.13;2.33;;;;;;;;;;5006867;28;20053;-85
2024/01/14 00:12:25;;;;;;;9.23;2.10;;;;;;;;;;5006857;28;20042;-88
2024/01/14 00:14:51;;;;;;;10.23;2.08;;;;;;;;;;5006713;28;20050;-84
2024/01/14 00:17:18;;;;;;;13.18;2.35;;;;;;;;;;5006948;28;20045;-84
2024/01/14 00:19:44;;;;;;;16.38;2.83;;;;;;;;;;5007153;28;20148;-84
2024/01/14 00:22:10;;;;;;;10.75;2.35;;;;;;;;;;5007213;28;20419;-88
2024/01/14 00:24:36;;;;;;;14.27;3.08;;;;;;;;;;5007029;28;20072;-85
2024/01/14 00:27:02;;;;;;;14.38;1.90;;;;;;;;;;5007420;28;20530;-86
2024/01/14 00:29:28;;;;;;;10.88;1.85;;;;;;;;;;5007286;28;20033;-84
2024/01/14 00:31:56;;;;;;;13.65;2.25;;;;;;;;;;5006891;28;20037;-84
2024/01/14 00:34:22;;;;;;;17.70;2.35;;;;;;;;;;5007446;28;20049;-86
2024/01/14 00:36:48;;;;;;;6.90;2.60;;;;;;;;;;5019154;28;20057;-84
2024/01/14 00:39:15;;;;;;;7.85;2.10;;;;;;;;;;5026875;28;20049;-84
2024/01/14 00:41:41;;;;;;;7.70;1.92;;;;;;;;;;5026568;28;20069;-88
2024/01/14 00:44:07;;;;;;;12.38;1.85;;;;;;;;;;5043196;28;20498;-84
2024/01/14 00:46:33;;;;;;;10.40;1.88;;;;;;;;;;5026411;28;20144;-85
2024/01/14 00:48:59;;;;;;;8.52;1.90;;;;;;;;;;5042737;28;20124;-84
2024/01/14 00:51:25;;;;;;;11.15;2.33;;;;;;;;;;5026331;28;20080;-85
2024/01/14 00:53:51;;;;;;;14.38;1.83;;;;;;;;;;5030246;28;20080;-86
2024/01/14 00:56:17;;;;;;;9.30;1.77;;;;;;;;;;5030119;28;20110;-84
2024/01/14 00:58:43;;;;;;;7.28;1.60;;;;;;;;;;5030019;28;20458;-85
2024/01/14 01:01:09;;;;;;;12.68;2.88;;;;;;;;;;5030067;28;20071;-85
2024/01/14 01:03:35;;;;;;;11.05;1.90;;;;;;;;;;5030334;28;20037;-85
2024/01/14 01:06:01;;;;;;;8.27;2.80;;;;;;;;;;5043140;28;20043;-87
2024/01/14 01:08:27;;;;;;;8.98;1.65;;;;;;;;;;5067020;28;20040;-84
2024/01/14 01:10:53;;;;;;;7.63;1.73;;;;;;;;;;5066540;28;20051;-85
2024/01/14 01:13:19;;;;;;;11.93;2.85;;;;;;;;;;5066330;28;20052;-85
2024/01/14 01:15:45;;;;;;;9.00;2.33;;;;;;;;;;5066509;28;20052;-85
2024/01/14 01:18:11;;;;;;;9.45;1.90;;;;;;;;;;5049693;28;20545;-89
2024/01/14 01:20:37;;;;;;;20.95;2.88;;;;;;;;;;5049426;28;20106;-85
2024/01/14 01:23:03;;;;;;;13.63;2.15;;;;;;;;;;5049158;28;20040;-84
2024/01/14 01:25:29;;;;;;;12.85;2.40;;;;;;;;;;5049592;28;20056;-84
2024/01/14 01:27:55;;;;;;;10.93;2.60;;;;;;;;;;5049304;28;20036;-84
2024/01/14 01:30:21;;;;;;;9.27;2.15;;;;;;;;;;5066459;28;20051;-86
2024/01/14 01:32:48;;;;;;;15.20;3.20;;;;;;;;;;5038694;28;20051;-84
2024/01/14 01:35:15;;;;;;;11.85;2.80;;;;;;;;;;5029454;28;20052;-84
2024/01/14 01:37:41;;;;;;;14.27;2.60;;;;;;;;;;5037357;28;20133;-86
2024/01/14 01:40:09;;;;;;;6.10;1.75;;;;;;;;;;5049194;28;20045;-86
2024/01/14 01:42:35;;;;;;;9.15;2.97;;;;;;;;;;5049299;28;20421;-84
2024/01/14 01:45:01;;;;;;;9.35;1.60;;;;;;;;;;5048920;28;20093;-85
2024/01/14 01:47:28;;;;;;;7.78;1.98;;;;;;;;;;5065760;28;20168;-85
2024/01/14 01:49:54;;;;;;;15.45;2.22;;;;;;;;;;5048834;28;20041;-84
2024/01/14 01:52:20;;;;;;;4.47;2.08;;;;;;;;;;5048802;28;20075;-84
2024/01/14 01:54:48;;;;;;;11.45;2.22;;;;;;;;;;5048962;28;20047;-85
2024/01/14 01:57:14;;;;;;;12.82;2.10;;;;;;;;;;5065372;28;20090;-85
2024/01/14 01:59:43;;;;;;;12.25;2.10;;;;;;;;;;5048582;28;20044;-84
2024/01/14 02:02:10;;;;;;;11.57;3.00;;;;;;;;;;5049017;28;20048;-84
2024/01/14 02:04:36;;;;;;;10.43;2.10;;;;;;;;;;5048594;28;20148;-86
2024/01/14 02:07:02;;;;;;;7.97;2.05;;;;;;;;;;5048481;28;20036;-86
2024/01/14 02:09:28;;;;;;;8.57;1.83;;;;;;;;;;5048496;28;20040;-86
2024/01/14 02:11:55;;;;;;;14.30;2.88;;;;;;;;;;5048722;28;20045;-84
2024/01/14 02:14:21;;;;;;;10.77;2.30;;;;;;;;;;5048527;28;20589;-84
2024/01/14 02:16:47;;;;;;;10.88;2.97;;;;;;;;;;5048466;28;20048;-85
2024/01/14 02:19:13;;;;;;;8.75;3.28;;;;;;;;;;5048490;28;20079;-86
2024/01/14 02:21:46;;;;;;;9.20;2.10;;;4.80;99.90;;;;;;5048805;28;20081;-84
2024/01/14 02:24:23;;;;;;;9.90;2.20;;;;;;;;;;5048865;28;20734;-84
2024/01/14 02:26:49;;;;;;;7.05;2.05;;;;;;;;;;5048191;28;20044;-85
2024/01/14 02:29:15;;;;;;;11.52;3.42;;;;;;;;;;5064829;28;20036;-84
2024/01/14 02:31:41;;;;;;;14.20;2.40;;;;;;;;;;5047989;28;20453;-84
2024/01/14 02:34:07;;;;;;;9.70;1.88;;;;;;;;;;5064355;28;20056;-84
2024/01/14 02:36:33;;;;;;;7.85;1.95;;;;;;;;;;5048273;28;20109;-87
2024/01/14 02:38:59;;;;;;;8.98;2.10;;;;;;;;;;5064882;28;20170;-84
2024/01/14 02:41:25;;;;;;;10.57;2.20;;;;;;;;;;5064564;28;20044;-85
2024/01/14 02:43:51;;;;;;;6.53;1.80;;;;;;;;;;5047733;28;20095;-84
2024/01/14 02:46:17;;;;;;;10.93;2.03;;;;;;;;;;5047673;28;20072;-84
2024/01/14 02:48:43;;;;;;;7.70;2.03;;;;;;;;;;5047939;28;20040;-87
2024/01/14 02:51:09;;;;;;;11.50;2.13;;;;;;;;;;5047607;28;20075;-85
2024/01/14 02:53:35;;;;;;;10.38;1.90;;;;;;;;;;5047514;28;20768;-84
2024/01/14 02:56:01;;;;;;;17.27;2.70;;;;;;;;;;5031794;28;20600;-84
2024/01/14 02:58:27;;;;;;;9.98;2.25;;;;;;;;;;5027196;28;20622;-85
2024/01/14 03:00:54;;;;;;;13.75;2.17;;;;;;;;;;5040876;28;20094;-85
2024/01/14 03:03:21;;;;;;;13.00;2.78;;;;;;;;;;5047434;28;20049;-84
2024/01/14 03:05:47;;;;;;;11.02;2.35;;;;;;;;;;5047962;28;20048;-84
2024/01/14 03:08:13;;;;;;;11.48;2.40;;;;;;;;;;5047354;28;20044;-85
2024/01/14 03:10:39;;;;;;;12.02;2.33;;;;;;;;;;5031336;28;20049;-88
2024/01/14 03:13:05;;;;;;;8.02;2.45;;;;;;;;;;5044099;28;20051;-84
2024/01/14 03:15:31;;;;;;;10.90;2.85;;;;;;;;;;5026929;28;20045;-84
2024/01/14 03:17:57;;;;;;;10.73;2.38;;;;;;;;;;5027394;28;20049;-86
2024/01/14 03:20:23;;;;;;;8.32;1.98;;;;;;;;;;5027294;28;20049;-84
2024/01/14 03:22:49;;;;;;;11.75;2.20;;;;;;;;;;5027154;28;20118;-85
2024/01/14 03:25:15;;;;;;;13.35;2.13;;;;;;;;;;5027219;28;20449;-84
2024/01/14 03:27:41;;;;;;;10.00;2.40;;;;;;;;;;5027375;28;20041;-84
2024/01/14 03:30:08;;;;;;;7.18;1.88;;;;;;;;;;5026968;28;20060;-84
2024/01/14 03:32:34;;;;;;;10.75;2.08;;;;;;;;;;5043494;28;20056;-88
2024/01/14 03:35:00;;;;;;;15.68;2.35;;;;;;;;;;5026786;28;20543;-86
2024/01/14 03:37:26;;;;;;;10.25;2.67;;;;;;;;;;5026365;28;20057;-84
2024/01/14 03:39:53;;;;;;;13.35;2.67;;;;;;;;;;5027174;28;20154;-84
2024/01/14 03:42:19;;;;;;;13.77;2.28;;;;;;;;;;5027411;28;20052;-86
2024/01/14 03:44:45;;;;;;;10.68;2.17;;;;;;;;;;5026822;28;20041;-88
2024/01/14 03:47:11;;;;;;;9.48;2.55;;;;;;;;;;5043293;28;20037;-85
2024/01/14 03:49:37;;;;;;;14.88;2.38;;;;;;;;;;5043242;28;20059;-84
2024/01/14 03:52:03;;;;;;;15.43;2.40;;;;;;;;;;5027198;28;20045;-84
2024/01/14 03:54:29;;;;;;;12.32;2.22;;;;;;;;;;5026920;28;20080;-86
2024/01/14 03:56:55;;;;;;;12.32;2.15;;;;;;;;;;5026510;28;20219;-85
2024/01/14 03:59:21;;;;;;;6.35;2.08;;;;;;;;;;5026486;28;20703;-85
2024/01/14 04:01:47;;;;;;;10.00;2.40;;;;;;;;;;5026124;28;20052;-84
2024/01/14 04:04:13;;;;;;;11.60;1.88;;;;;;;;;;5026300;28;20049;-84
2024/01/14 04:06:39;;;;;;;5.32;1.98;;;;;;;;;;5043090;28;20045;-85
2024/01/14 04:09:05;;;;;;;7.00;2.13;;;;;;;;;;5026592;28;20040;-84
2024/01/14 04:11:31;;;;;;;6.30;1.95;;;;;;;;;;5026637;28;20494;-84
2024/01/14 04:13:57;;;;;;;10.68;2.28;;;;;;;;;;5026533;28;20049;-84
2024/01/14 04:16:24;;;;;;;11.98;1.90;;;;;;;;;;5043138;28;20049;-87
2024/01/14 04:18:50;;;;;;;10.70;2.03;;;;;;;;;;5026466;28;20049;-88
2024/01/14 04:21:23;;;;;;;9.60;2.47;;;;;;;;;;5043078;28;20110;-86
2024/01/14 04:23:49;;;;;;;11.45;2.25;;;;;;;;;;5025892;28;20618;-85
2024/01/14 04:26:19;;;;;;;12.68;2.10;;;;;;;;;;5042803;28;20047;-85
2024/01/14 04:28:45;;;;;;;11.60;1.95;;;;;;;;;;5029866;28;20048;-85
2024/01/14 04:31:11;;;;;;;5.53;2.17;;;;;;;;;;5030594;28;20163;-84
2024/01/14 04:33:37;;;;;;;10.68;2.00;;;;;;;;;;5047161;28;20524;-84
2024/01/14 04:36:04;;;;;;;7.97;2.75;;;;;;;;;;5030259;28;20041;-85
2024/01/14 04:38:30;;;;;;;7.95;2.65;;;;;;;;;;5046495;28;20068;-85
2024/01/14 04:40:56;;;;;;;4.28;2.08;;;;;;;;;;5046291;28;20037;-84
2024/01/14 04:43:22;;;;;;;9.90;2.22;;;;;;;;;;5030061;28;20041;-84
2024/01/14 04:45:48;;;;;;;9.48;2.53;;;;;;;;;;5030296;28;20087;-84
2024/01/14 04:48:14;;;;;;;9.52;1.58;;;;;;;;;;5046064;28;20119;-85
2024/01/14 04:50:40;;;;;;;8.38;1.70;;;;;;;;;;5049980;28;20097;-86
2024/01/14 04:53:07;;;;;;;9.27;1.77;;;;;;;;;;5066922;28;20070;-86
2024/01/14 04:55:33;;;;;;;8.68;2.20;;;;;;;;;;5066575;28;20387;-84
2024/01/14 04:57:59;;;;;;;6.28;1.75;;;;;;;;;;5054623;28;20049;-84
2024/01/14 05:00:25;;;;;;;5.68;1.85;;;;;;;;;;5046719;28;20045;-86
2024/01/14 05:02:51;;;;;;;10.40;1.92;;;;;;;;;;5046373;28;20052;-84
2024/01/14 05:05:17;;;;;;;6.82;1.90;;;;;;;;;;5030005;28;20045;-84
2024/01/14 05:07:44;;;;;;;7.22;1.70;;;;;;;;;;5046091;28;20132;-84
2024/01/14 05:10:10;;;;;;;10.60;1.73;;;;;;;;;;5046245;28;20049;-85
2024/01/14 05:12:36;;;;;;;11.30;2.00;;;;;;;;;;5029813;28;20513;-84
2024/01/14 05:15:03;;;;;;;13.48;2.28;;;;;;;;;;5029706;28;20051;-88
2024/01/14 05:17:29;;;;;;;13.77;2.13;;;;;;;;;;5030400;28;20068;-84
2024/01/14 05:19:55;;;;;;;8.52;1.88;;;;;;;;;;5066119;28;20078;-85
2024/01/14 05:22:21;;;;;;;8.13;1.80;;;;;;;;;;5049830;28;20051;-86
2024/01/14 05:24:47;;;;;;;11.60;1.95;;;;;;;;;;5049661;28;20394;-84
2024/01/14 05:27:13;;;;;;;11.40;2.67;;;4.00;99.90;;;;;;5049476;28;20059;-86
2024/01/14 05:29:40;;;;;;;9.88;1.80;;;;;;;;;;5049372;28;20080;-84
2024/01/14 05:32:06;;;;;;;8.15;1.95;;;;;;;;;;5049692;28;20172;-84
2024/01/14 05:34:32;;;;;;;5.05;1.55;;;;;;;;;;5049672;28;20047;-86
2024/01/14 05:36:59;;;;;;;8.35;1.70;;;;;;;;;;5049478;28;20520;-85
2024/01/14 05:39:25;;;;;;;6.43;1.85;;;;;;;;;;5048963;28;20688;-84
2024/01/14 05:41:51;;;;;;;7.15;1.88;;;;;;;;;;5065917;28;20211;-86
2024/01/14 05:44:17;;;;;;;6.20;1.65;;;;;;;;;;5049471;28;20127;-84
2024/01/14 05:46:43;;;;;;;8.20;2.47;;;;;;;;;;5065785;28;20066;-85
2024/01/14 05:49:10;;;;;;;7.97;2.20;;;;;;;;;;5048886;28;20047;-84
2024/01/14 05:51:36;;;;;;;10.43;2.22;;;;;;;;;;5048326;28;20056;-86
2024/01/14 05:54:03;;;;;;;7.85;1.95;;;;;;;;;;5065790;28;20543;-84
2024/01/14 05:56:30;;;;;;;5.45;1.92;;;;;;;;;;5049164;28;20040;-84
2024/01/14 05:58:56;;;;;;;8.85;2.03;;;;;;;;;;5048672;28;20063;-83
2024/01/14 06:01:22;;;;;;;10.23;1.92;;;;;;;;;;5048752;28;20490;-85
2024/01/14 06:03:48;;;;;;;9.20;2.55;;;;;;;;;;5065398;28;20089;-84
2024/01/14 06:06:14;;;;;;;8.55;2.10;;;;;;;;;;5048997;28;20466;-84
2024/01/14 06:08:44;;;;;;;9.70;2.00;;;;;;;;;;5065883;28;20098;-84
2024/01/14 06:11:10;;;;;;;15.40;2.00;;;;;;;;;;5048877;28;20055;-84
2024/01/14 06:13:36;;;;;;;12.93;2.15;;;;;;;;;;5065163;28;20048;-85
2024/01/14 06:16:02;;;;;;;13.93;3.60;;;;;;;;;;5048233;28;20143;-85
2024/01/14 06:18:28;;;;;;;10.23;2.22;;;;;;;;;;5048911;28;20040;-84
2024/01/14 06:20:55;;;;;;;9.15;2.05;;;;;;;;;;5065631;28;20045;-84
2024/01/14 06:23:22;;;;;;;9.60;2.08;;;;;;;;;;5048651;28;20059;-84
2024/01/14 06:25:48;;;;;;;10.38;2.30;;;;;;;;;;5064877;28;20051;-84
2024/01/14 06:28:14;;;;;;;10.23;1.65;;;;;;;;;;5048363;28;20044;-86
2024/01/14 06:30:40;;;;;;;10.73;3.15;;;;;;;;;;5048893;28;20417;-84
2024/01/14 06:33:06;;;;;;;7.45;1.80;;;;;;;;;;5048184;28;20044;-84
2024/01/14 06:35:32;;;;;;;8.93;1.80;;;;;;;;;;5064451;28;20075;-86
2024/01/14 06:37:58;;;;;;;8.10;1.88;;;;;;;;;;5047888;28;20064;-84
2024/01/14 06:40:24;;;;;;;8.27;1.88;;;;;;;;;;5048064;28;20879;-84
2024/01/14 06:42:50;;;;;;;8.13;1.60;;;;;;;;;;5047607;28;20072;-84
2024/01/14 06:45:16;;;;;;;9.40;1.60;;;;;;;;;;5047889;28;20132;-84
2024/01/14 06:47:42;;;;;;;9.50;2.08;;;;;;;;;;5047834;28;20082;-84
2024/01/14 06:50:09;;;;;;;16.60;3.05;;;;;;;;;;5063155;28;20052;-85
2024/01/14 06:52:35;;;;;;;7.18;1.88;;;;;;;;;;5064523;28;20770;-87
2024/01/14 06:55:01;;;;;;;5.25;1.38;;;;;;;;;;5064384;28;20082;-85
2024/01/14 06:57:27;;;;;;;7.68;2.00;;;;;;;;;;5047960;28;20075;-84
2024/01/14 06:59:53;;;;;;;12.85;1.60;;;;;;;;;;5064566;28;20044;-84
2024/01/14 07:02:19;;;;;;;8.45;2.08;;;;;;;;;;5064275;28;20679;-84
2024/01/14 07:04:45;;;;;;;5.57;1.67;;;;;;;;;;5063993;28;20074;-85
2024/01/14 07:07:11;;;;;;;8.35;1.77;;;;;;;;;;5047795;28;20044;-85
2024/01/14 07:09:37;;;;;;;6.15;1.88;;;;;;;;;;5063835;28;20051;-84
2024/01/14 07:12:03;;;;;;;8.93;1.70;;;;;;;;;;5047547;28;20048;-86
2024/01/14 07:14:29;;;;;;;7.20;2.05;;;;;;;;;;5047586;28;20051;-84
2024/01/14 07:16:55;;;;;;;5.22;1.40;;;;;;;;;;5047490;28;20044;-89
2024/01/14 07:19:21;;;;;;;9.60;2.40;;;;;;;;;;5047165;28;20619;-85
2024/01/14 07:21:47;;;;;;;6.07;1.58;;;;;;;;;;5043875;28;20068;-84
2024/01/14 07:24:13;;;;;;;7.75;2.40;;;;;;;;;;5063636;28;20672;-85
2024/01/14 07:26:39;;;;;;;8.15;2.20;;;;;;;;;;5027132;28;20060;-84
2024/01/14 07:29:05;;;;;;;6.85;1.63;;;;;;;;;;5025380;28;20049;-88
2024/01/14 07:31:31;;;;;;;6.95;2.08;;;;;;;;;;5026286;28;20619;-85
2024/01/14 07:33:58;;;;;;;4.50;1.60;;;;;;;;;;5044151;28;20723;-84
2024/01/14 07:36:24;;;;;;;9.38;1.85;;;;;;;;;;5026967;28;20072;-84
2024/01/14 07:38:51;;;;;;;5.47;1.83;;;;;;;;;;5044114;28;20049;-83
2024/01/14 07:41:17;;;;;;;9.15;2.47;;;;;;;;;;5042512;28;20041;-83
2024/01/14 07:43:43;;;;;;;6.22;1.75;;;;;;;;;;5025051;28;20043;-83
2024/01/14 07:46:09;;;;;;;8.95;2.60;;;;;;;;;;5035875;28;20049;-85
2024/01/14 07:48:36;;;;;;;6.63;1.90;;;;;;;;;;5028275;28;20719;-83
2024/01/14 07:51:02;;;;;;;10.50;2.20;;;;;;;;;;5043716;28;20048;-83
2024/01/14 07:53:28;;;;;;;7.70;1.92;;;;;;;;;;5042949;28;20062;-83
2024/01/14 07:55:54;;;;;;;5.50;1.65;;;;;;;;;;5027505;28;20045;-83
2024/01/14 07:58:20;;;;;;;8.50;2.03;;;;;;;;;;5041683;28;20098;-82
2024/01/14 08:00:47;;;;;;;9.02;2.67;;;;;;;;;;5031754;28;20080;-85
2024/01/14 08:03:13;;;;;;;10.70;1.92;;;;;;;;;;5044088;28;20889;-84
2024/01/14 08:05:39;;;;;;;6.82;1.80;;;;;;;;;;5025352;28;20942;-82
2024/01/14 08:08:06;;;;;;;6.50;1.55;;;;;;;;;;5032969;28;20487;-83
2024/01/14 08:10:35;;;;;;;7.63;2.00;;;;;;;;;;5025542;28;20118;-84
2024/01/14 08:13:01;;;;;;;9.80;1.85;;;;;;;;;;5027465;28;20770;-82
2024/01/14 08:15:27;;;;;;;7.75;2.25;;;;;;;;;;5046970;28;20120;-83
2024/01/14 08:17:53;;;;;;;8.02;1.80;;;;;;;;;;5040802;28;20151;-83
2024/01/14 08:20:19;;;;;;;3.55;1.70;;;;;;;;;;5042598;28;20056;-83
2024/01/14 08:22:45;;;;;;;7.68;2.08;;;;;;;;;;5038798;28;20041;-83
2024/01/14 08:25:11;;;;;;;5.55;1.85;;;;;;;;;;5029129;28;20041;-83
2024/01/14 08:27:38;;;;;;;3.83;1.50;;;;;;;;;;5040467;28;20048;-84
2024/01/14 08:30:07;;;;;;;5.82;2.72;;;;;;;;;;5050629;28;20041;-84
2024/01/14 08:32:34;;;;;;;6.15;2.05;;;;;;;;;;5053213;28;20036;-83
2024/01/14 08:35:00;;;;;;;7.85;2.05;;;;;;;;;;5030378;28;20076;-83
2024/01/14 08:37:29;;;;;;;7.35;1.88;;;;;;;;;;5029712;28;20087;-83
2024/01/14 08:39:55;;;;;;;8.13;2.17;;;;;;;;;;5045130;28;20769;-83
2024/01/14 08:42:21;;;;;;;6.63;2.15;;;;;;;;;;5048333;28;20043;-83
2024/01/14 08:44:47;;;;;;;2.80;2.15;;;;;;;;;;5030388;28;20124;-82
2024/01/14 08:47:13;;;;;;;7.13;2.05;;;;;;;;;;5029717;28;20746;-84
2024/01/14 08:49:42;;;;;;;9.45;1.75;;;;;;;;;;5024542;28;20037;-84
2024/01/14 08:52:08;;;;;;;11.00;3.55;;;;;;;;;;5020055;28;20110;-86
2024/01/14 08:54:35;;;;;;;10.27;2.15;;;;;;;;;;5027057;28;20037;-85
2024/01/14 08:57:01;;;;;;;9.65;1.83;;;;;;;;;;5041173;28;20080;-86
2024/01/14 08:59:27;;;;;;;5.28;1.90;;;;;;;;;;5024431;28;20041;-83
2024/01/14 09:01:53;;;;;;;4.60;1.65;;;;;;;;;;5023202;28;20045;-87
2024/01/14 09:04:22;;;;;;;8.00;1.63;;;;;;;;;;5023484;28;20486;-85
2024/01/14 09:06:48;;;;;;;4.13;2.40;;;;;;;;;;5021393;28;20041;-85
2024/01/14 09:09:14;;;;;;;2.35;1.63;;;;;;;;;;5042695;28;20052;-85
2024/01/14 09:11:40;;;;;;;6.20;2.50;;;;;;;;;;5022664;28;20045;-84
2024/01/14 09:14:06;;;;;;;4.25;1.80;;;;;;;;;;5027589;28;20546;-86
2024/01/14 09:16:32;;;;;;;8.23;1.60;;;;;;;;;;5027741;28;20072;-85
2024/01/14 09:18:58;;;;;;;3.58;2.60;;;;;;;;;;5043006;28;20172;-85
2024/01/14 09:21:25;;;;;;;3.30;1.38;;;;;;;;;;5021689;28;20049;-87
2024/01/14 09:23:51;;;;;;;7.20;1.80;;;;;;;;;;5027894;28;20048;-85
2024/01/14 09:26:17;;;;;;;5.07;1.30;;;;;;;;;;5052671;28;20033;-84
2024/01/14 09:28:43;;;;;;;7.05;1.80;;;;;;;;;;5052497;28;20498;-83
2024/01/14 09:31:09;;;;;;;7.78;1.73;;;;;;;;;;5023936;28;20044;-85
2024/01/14 09:33:35;;;;;;;4.15;1.50;;;;;;;;;;5033405;28;20044;-84
2024/01/14 09:36:09;;;;;;;3.15;1.58;;;;;;;;;;5044585;28;20724;-84
2024/01/14 09:38:35;;;;;;;3.03;1.60;;;;;;;;;;5030843;28;20049;-84
2024/01/14 09:41:21;;;;;;;3.53;1.60;;;;;;;;;;5033028;28;20048;-87
2024/01/14 09:43:49;;;;;;;13.38;1.98;;;;;;;;;;5021645;28;20072;-86
2024/01/14 09:46:15;;;;;;;10.10;2.05;;;;;;;;;;5032640;28;20051;-84
2024/01/14 09:48:42;;;;;;;6.25;1.52;;;;;;;;;;5019456;28;20080;-87
2024/01/14 09:51:09;;;;;;;5.43;1.45;;;;;;;;;;5042360;28;20056;-86
2024/01/14 09:53:37;;;;;;;4.38;1.67;;;;;;;;;;5026261;28;20049;-85
2024/01/14 09:56:05;;;;;;;4.28;1.25;;;;;;;;;;5029701;28;20103;-84
2024/01/14 09:58:31;;;;;;;7.22;1.60;;;;;;;;;;5022972;28;20144;-84
2024/01/14 10:01:01;;;;;;;5.70;1.02;;;;;;;;;;5014977;28;20120;-83
2024/01/14 10:03:27;;;;;;;3.33;1.20;;;;;;;;;;5027442;28;20483;-85
2024/01/14 10:05:54;;;;;;;4.55;1.15;;;;;;;;;;5030309;28;20047;-88
2024/01/14 10:08:20;;;;;;;3.20;1.38;;;;;;;;;;5033568;28;20525;-87
2024/01/14 10:10:52;;;;;;;3.53;1.52;;;;;;;;;;5033036;28;20047;-85
2024/01/14 10:13:20;;;;;;;4.47;2.25;;;;;;;;;;5022151;28;20518;-86
2024/01/14 10:15:47;;;;;;;2.03;1.52;;;;;;;;;;5030427;28;20052;-86
2024/01/14 10:18:13;;;;;;;3.40;1.25;;;;;;;;;;5019449;28;20080;-84
2024/01/14 10:20:39;;;;;;;5.30;1.50;;;;;;;;;;5014118;28;20053;-84
2024/01/14 10:23:06;;;;;;;4.88;1.80;;;;;;;;;;5028309;28;20053;-86
2024/01/14 10:25:32;;;;;;;6.43;1.63;;;;;;;;;;5029957;28;20068;-88
2024/01/14 10:28:02;;;;;;;9.25;2.40;;;;;;;;;;5050185;28;20037;-85
2024/01/14 10:30:29;;;;;;;5.78;1.60;;;;;;;;;;5042923;28;20041;-84
2024/01/14 10:32:55;;;;;;;5.35;2.00;;;;;;;;;;5053612;28;20118;-84
2024/01/14 10:35:21;;;;;;;4.03;1.50;;;;;;;;;;5043309;28;20048;-84
2024/01/14 10:37:47;;;;;;;5.60;1.88;;;;;;;;;;5023182;28;20058;-85
2024/01/14 10:40:13;;;;;;;5.47;1.40;;;;;;;;;;5041242;28;20128;-84
2024/01/14 10:42:40;;;;;;;4.45;1.63;;;;;;;;;;5031712;28;20052;-83
2024/01/14 10:45:06;;;;;;;6.20;1.15;;;5.50;99.90;;;;;;5034015;28;20037;-84
2024/01/14 10:47:34;;;;;;;5.47;1.58;;;;;;;;;;5035794;28;20075;-88
2024/01/14 10:50:00;;;;;;;5.10;1.35;;;;;;;;;;5037517;28;20132;-85
2024/01/14 10:52:27;;;;;;;9.15;1.60;;;;;;;;;;5027753;28;20056;-84
2024/01/14 10:54:56;;;;;;;4.05;2.17;;;;;;;;;;5039854;28;20036;-85
2024/01/14 10:57:35;;;;;;;4.47;1.45;;;;;;;;;;5039293;28;21140;-84
2024/01/14 11:00:05;;;;;;;3.60;1.52;;;;;;;;;;5045875;28;20040;-85
2024/01/14 11:02:32;;;;;;;7.45;1.92;;;6.00;99.90;;;;;;5020685;28;20118;-87
2024/01/14 11:04:59;;;;;;;3.33;1.60;;;;;;;;;;5037647;28;20037;-84
2024/01/14 11:07:25;;;;;;;5.78;1.45;;;;;;;;;;5030305;28;20148;-83
2024/01/14 11:09:52;;;;;;;4.75;1.60;;;;;;;;;;5030513;28;20052;-86
2024/01/14 11:12:32;;;;;;;8.30;1.60;;;;;;;;;;5043769;28;20084;-85
2024/01/14 11:15:10;;;;;;;4.80;1.60;;;;;;;;;;5027655;28;20051;-87
2024/01/14 11:17:58;;;;;;;9.68;1.70;;;;;;;;;;5020575;28;20751;-87
2024/01/14 11:20:26;;;;;;;5.25;1.42;;;;;;;;;;5033294;28;20495;-86
2024/01/14 11:22:52;;;;;;;3.28;1.30;;;;;;;;;;5058460;28;20040;-88
2024/01/14 11:25:22;;;;;;;7.43;1.48;;;;;;;;;;5035785;28;20081;-86
2024/01/14 11:27:48;;;;;;;5.00;1.25;;;;;;;;;;5030277;28;20052;-88
2024/01/14 11:30:18;;;;;;;5.15;1.20;;;;;;;;;;5046691;28;20178;-87
2024/01/14 11:32:44;;;;;;;6.55;1.15;;;;;;;;;;5043457;28;20060;-88
2024/01/14 11:35:11;;;;;;;3.58;1.35;;;;;;;;;;5021111;28;20036;-86
2024/01/14 11:37:41;;;;;;;2.92;1.23;;;;;;;;;;5027215;28;20065;-88
2024/01/14 11:40:13;;;;;;;7.72;1.65;;;;;;;;;;5046834;28;20105;-89
2024/01/14 11:42:44;;;;;;;11.45;2.38;;;;;;;;;;5035309;28;20041;-88
2024/01/14 11:45:32;;;;;;;4.90;1.13;;;;;;;;;;5016195;28;20042;-87
2024/01/14 11:47:58;;;;;;;2.03;1.10;;;;;;;;;;5036295;28;20041;-88
2024/01/14 11:50:24;;;;;;;6.53;1.92;;;;;;;;;;5021544;28;20685;-87
2024/01/14 11:52:55;;;;;;;5.40;1.38;;;;;;;;;;5024505;28;20074;-86
2024/01/14 11:55:25;;;;;;;2.35;1.50;;;;;;;;;;5024638;28;20569;-86
2024/01/14 11:57:51;;;;;;;3.83;1.40;;;;;;;;;;5016689;28;20083;-86
2024/01/14 12:00:21;;;;;;;4.43;1.42;;;;;;;;;;5030992;28;20041;-88
2024/01/14 12:02:47;;;;;;;4.85;1.40;;;;;;;;;;5024691;28;20041;-87
2024/01/14 12:05:20;;;;;;;5.10;1.67;;;;;;;;;;5011203;28;20129;-87
2024/01/14 12:07:47;;;;;;;4.22;1.77;;;;;;;;;;5042291;28;20055;-85
2024/01/14 12:10:18;;;;;;;2.15;1.13;;;;;;;;;;5025562;28;20041;-86
2024/01/14 12:12:44;;;;;;;10.88;2.17;;;;;;;;;;5020810;28;20052;-88
2024/01/14 12:15:10;;;;;;;4.28;1.65;;;;;;;;;;5028042;28;20044;-86
2024/01/14 12:17:36;;;;;;;7.47;1.60;;;;;;;;;;5022652;28;20170;-86
2024/01/14 12:20:04;;;;;;;2.70;1.23;;;;;;;;;;5025544;28;20058;-86
2024/01/14 12:22:31;;;;;;;6.75;1.45;;;;;;;;;;5028107;28;20048;-86
2024/01/14 12:24:57;;;;;;;5.05;1.20;;;;;;;;;;5019514;28;20094;-86
2024/01/14 12:27:23;;;;;;;3.95;1.30;;;;;;;;;;5041610;28;20051;-87
2024/01/14 12:29:49;;;;;;;2.85;1.60;;;;;;;;;;5022006;28;20041;-88
2024/01/14 12:32:16;;;;;;;3.28;1.42;;;;;;;;;;5037156;28;20095;-86
2024/01/14 12:34:43;;;;;;;7.95;2.03;;;;;;;;;;5024119;28;20316;-86
2024/01/14 12:37:10;;;;;;;3.97;1.50;;;;;;;;;;5021457;28;20813;-88
2024/01/14 12:39:37;;;;;;;2.38;1.17;;;;;;;;;;5020190;28;20509;-85
2024/01/14 12:42:03;;;;;;;12.90;1.90;;;;;;;;;;5038847;28;20507;-86
2024/01/14 12:44:33;;;;;;;5.65;1.55;;;;;;;;;;5025131;28;20049;-87
2024/01/14 12:47:08;;;;;;;3.35;1.38;;;;;;;;;;5019360;28;20038;-85
2024/01/14 12:49:34;;;;;;;;;;;;;;;;;;5020607;28;20045;-84
2024/01/14 12:52:07;;;;;;;4.45;1.20;;;;;;;;;;5035539;28;20302;-85
2024/01/14 12:54:33;;;;;;;4.50;1.50;;;;;;;;;;5021323;28;20105;-85
2024/01/14 12:56:59;;;;;;;3.95;1.30;;;;;;;;;;5028274;28;20084;-85
2024/01/14 12:59:25;;;;;;;6.13;1.30;;;;;;;;;;5030015;28;20056;-85
2024/01/14 13:01:51;;;;;;;3.33;1.52;;;;;;;;;;5023913;28;20055;-86
2024/01/14 13:04:17;;;;;;;8.65;1.77;;;;;;;;;;5022010;28;20046;-86
2024/01/14 13:06:43;;;;;;;5.22;2.38;;;;;;;;;;5032748;28;20116;-87
2024/01/14 13:09:10;;;;;;;7.93;2.33;;;;;;;;;;5030179;28;20048;-87
2024/01/14 13:11:36;;;;;;;5.55;2.55;;;;;;;;;;5032447;28;20047;-85
2024/01/14 13:14:02;;;;;;;9.60;2.55;;;;;;;;;;5032297;28;20077;-85
2024/01/14 13:16:28;;;;;;;6.18;2.45;;;;;;;;;;5027139;28;20044;-85
2024/01/14 13:18:56;;;;;;;9.02;2.90;;;;;;;;;;5024224;28;20044;-87
2024/01/14 13:21:22;;;;;;;11.65;2.50;;;;;;;;;;5027386;28;20128;-85
2024/01/14 13:23:48;;;;;;;9.68;3.22;;;;;;;;;;5030216;28;20402;-85
2024/01/14 13:26:14;;;;;;;3.80;1.75;;;;;;;;;;5024628;28;20040;-86
2024/01/14 13:28:40;;;;;;;4.90;1.60;;;;;;;;;;5038127;28;20835;-88
2024/01/14 13:31:06;;;;;;;11.65;1.70;;;;;;;;;;5014909;28;20046;-87
2024/01/14 13:33:33;;;;;;;5.70;1.63;;;;;;;;;;5030032;28;20406;-86
2024/01/14 13:35:59;;;;;;;5.20;1.60;;;;;;;;;;5025969;28;20049;-86
2024/01/14 13:38:25;;;;;;;6.90;1.45;;;;;;;;;;5030740;28;20133;-87
2024/01/14 13:40:51;;;;;;;6.10;2.38;;;;;;;;;;5031619;28;20056;-86
2024/01/14 13:43:17;;;;;;;5.32;2.00;;;;;;;;;;5028559;28;20056;-86
2024/01/14 13:45:44;;;;;;;9.27;1.85;;;;;;;;;;5043190;28;20066;-86
2024/01/14 13:48:10;;;;;;;6.20;2.20;;;;;;;;;;5037975;28;20076;-86
2024/01/14 13:50:36;;;;;;;6.40;1.35;;;;;;;;;;5063367;28;20499;-85
2024/01/14 13:53:02;;;;;;;6.80;2.05;;;;;;;;;;5035228;28;20128;-86
2024/01/14 13:55:28;;;;;;;8.15;1.75;;;;;;;;;;5036342;28;20044;-85
2024/01/14 13:57:54;;;;;;;9.68;1.98;;;;;;;;;;5050053;28;20115;-86
2024/01/14 14:00:20;;;;;;;9.18;1.63;;;;;;;;;;5045540;28;20037;-87
2024/01/14 14:02:46;;;;;;;2.22;1.50;;;;;;;;;;5048747;28;20517;-85
2024/01/14 14:05:14;;;;;;;6.18;2.33;;;;;;;;;;5041903;28;20076;-87
2024/01/14 14:07:40;;;;;;;6.18;1.90;;;;;;;;;;5047635;28;20040;-87
2024/01/14 14:10:06;;;;;;;9.00;2.08;;;;;;;;;;5055913;28;20044;-87
2024/01/14 14:12:34;;;;;;;5.35;1.65;;;;;;;;;;5044241;28;20067;-84
2024/01/14 14:15:02;;;;;;;5.13;1.80;;;;;;;;;;5065059;28;20099;-85
2024/01/14 14:17:28;;;;;;;3.95;1.83;;;;;;;;;;5064228;28;20494;-85
2024/01/14 14:19:54;;;;;;;4.18;1.50;;;;;;;;;;5029004;28;20041;-85
2024/01/14 14:22:20;;;;;;;4.88;1.33;;;;;;;;;;5024366;28;20062;-88
2024/01/14 14:24:46;;;;;;;8.30;1.85;;;;;;;;;;5049457;28;20033;-86
2024/01/14 14:27:13;;;;;;;6.10;1.98;;;;;;;;;;5030003;28;20383;-87
2024/01/14 14:29:39;;;;;;;5.50;1.50;;;;;;;;;;5054927;28;20072;-86
2024/01/14 14:32:08;;;;;;;4.03;1.52;;;;;;;;;;5038581;28;20045;-86
2024/01/14 14:34:34;;;;;;;4.70;1.65;;;;;;;;;;5030534;28;20056;-86